sensor_id;sensor_type;location;lat;lon;timestamp;pressure;altitude;pressure_sealevel;temperature;humidity
61742;BME280;47650;49.848;9.620;2024-01-10T00:02:11;100700.78;;;-4.32;48.11
61742;BME280;47650;49.848;9.620;2024-01-10T00:04:37;100752.56;;;-3.81;48.05
61742;BME280;47650;49.848;9.620;2024-01-10T00:07:02;100754.34;;;-3.83;48.17
61742;BME280;47650;49.848;9.620;2024-01-10T00:09:30;100757.97;;;-3.93;48.00
61742;BME280;47650;49.848;9.620;2024-01-10T00:11:55;100726.84;;;-3.90;47.50
61742;BME280;47650;49.848;9.620;2024-01-10T00:14:20;100720.38;;;-4.18;47.18
61742;BME280;47650;49.848;9.620;2024-01-10T00:16:46;100769.84;;;-3.79;47.33
61742;BME280;47650;49.848;9.620;2024-01-10T00:19:11;100765.00;;;-4.02;47.63
61742;BME280;47650;49.848;9.620;2024-01-10T00:21:37;100773.31;;;-3.81;46.94
61742;BME280;47650;49.848;9.620;2024-01-10T00:24:03;100724.97;;;-3.82;46.87
61742;BME280;47650;49.848;9.620;2024-01-10T00:26:29;100757.44;;;-3.61;47.00
61742;BME280;47650;49.848;9.620;2024-01-10T00:28:54;100750.50;;;-3.61;47.00
61742;BME280;47650;49.848;9.620;2024-01-10T00:31:20;100754.81;;;-3.60;46.78
61742;BME280;47650;49.848;9.620;2024-01-10T00:33:45;100730.03;;;-3.76;46.77
61742;BME280;47650;49.848;9.620;2024-01-10T00:36:10;100755.72;;;-3.64;46.69
61742;BME280;47650;49.848;9.620;2024-01-10T00:38:36;100760.06;;;-3.64;46.98
61742;BME280;47650;49.848;9.620;2024-01-10T00:41:03;100701.34;;;-4.15;47.07
61742;BME280;47650;49.848;9.620;2024-01-10T00:43:28;100725.81;;;-3.82;46.66
61742;BME280;47650;49.848;9.620;2024-01-10T00:45:54;100740.53;;;-3.84;47.07
61742;BME280;47650;49.848;9.620;2024-01-10T00:48:19;100727.19;;;-4.12;47.77
61742;BME280;47650;49.848;9.620;2024-01-10T00:50:45;100765.59;;;-3.84;47.49
61742;BME280;47650;49.848;9.620;2024-01-10T00:55:38;100761.50;;;-3.98;48.19
61742;BME280;47650;49.848;9.620;2024-01-10T00:58:03;100754.66;;;-4.02;48.05
61742;BME280;47650;49.848;9.620;2024-01-10T01:00:31;100672.53;;;-4.48;47.71
61742;BME280;47650;49.848;9.620;2024-01-10T01:02:56;100689.00;;;-4.54;47.96
61742;BME280;47650;49.848;9.620;2024-01-10T01:05:22;100751.34;;;-4.10;47.72
61742;BME280;47650;49.848;9.620;2024-01-10T01:07:47;100742.06;;;-4.23;48.09
61742;BME280;47650;49.848;9.620;2024-01-10T01:10:13;100752.28;;;-4.17;48.27
61742;BME280;47650;49.848;9.620;2024-01-10T01:12:38;100758.44;;;-4.23;48.82
61742;BME280;47650;49.848;9.620;2024-01-10T01:15:04;100754.88;;;-4.17;49.21
61742;BME280;47650;49.848;9.620;2024-01-10T01:17:30;100751.63;;;-4.28;48.96
61742;BME280;47650;49.848;9.620;2024-01-10T01:19:55;100760.19;;;-4.23;48.56
61742;BME280;47650;49.848;9.620;2024-01-10T01:22:21;100765.41;;;-4.26;48.88
61742;BME280;47650;49.848;9.620;2024-01-10T01:24:47;100760.38;;;-4.36;49.25
61742;BME280;47650;49.848;9.620;2024-01-10T01:27:13;100729.03;;;-4.78;50.16
61742;BME280;47650;49.848;9.620;2024-01-10T01:29:38;100678.34;;;-4.91;49.46
61742;BME280;47650;49.848;9.620;2024-01-10T01:32:04;100755.22;;;-4.39;49.60
61742;BME280;47650;49.848;9.620;2024-01-10T01:34:29;100732.38;;;-4.69;50.76
61742;BME280;47650;49.848;9.620;2024-01-10T01:36:55;100650.19;;;-5.13;50.43
61742;BME280;47650;49.848;9.620;2024-01-10T01:39:20;100744.13;;;-4.48;50.42
61742;BME280;47650;49.848;9.620;2024-01-10T01:41:45;100716.75;;;-4.63;50.86
61742;BME280;47650;49.848;9.620;2024-01-10T01:44:13;100739.84;;;-4.48;50.68
61742;BME280;47650;49.848;9.620;2024-01-10T01:46:40;100744.00;;;-4.38;49.88
61742;BME280;47650;49.848;9.620;2024-01-10T01:49:06;100722.34;;;-4.94;50.29
61742;BME280;47650;49.848;9.620;2024-01-10T01:51:34;100742.25;;;-4.37;50.11
61742;BME280;47650;49.848;9.620;2024-01-10T01:54:03;100708.84;;;-4.54;49.87
61742;BME280;47650;49.848;9.620;2024-01-10T01:56:29;100717.44;;;-4.50;49.62
61742;BME280;47650;49.848;9.620;2024-01-10T01:58:55;100738.72;;;-4.33;49.59
61742;BME280;47650;49.848;9.620;2024-01-10T02:01:20;100718.22;;;-4.45;49.57
61742;BME280;47650;49.848;9.620;2024-01-10T02:03:50;100736.13;;;-4.31;49.64
61742;BME280;47650;49.848;9.620;2024-01-10T02:06:15;100712.22;;;-4.49;49.32
61742;BME280;47650;49.848;9.620;2024-01-10T02:08:41;100703.59;;;-4.48;49.67
61742;BME280;47650;49.848;9.620;2024-01-10T02:11:08;100707.88;;;-4.47;49.60
61742;BME280;47650;49.848;9.620;2024-01-10T02:13:33;100648.88;;;-4.79;49.96
61742;BME280;47650;49.848;9.620;2024-01-10T02:15:59;100671.00;;;-4.61;50.13
61742;BME280;47650;49.848;9.620;2024-01-10T02:38:34;100715.16;;;-4.16;50.54
61742;BME280;47650;49.848;9.620;2024-01-10T02:40:59;100697.03;;;-4.16;51.04
61742;BME280;47650;49.848;9.620;2024-01-10T02:43:27;100724.34;;;-3.98;51.10
61742;BME280;47650;49.848;9.620;2024-01-10T02:45:52;100700.25;;;-4.02;51.20
61742;BME280;47650;49.848;9.620;2024-01-10T02:48:19;100682.19;;;-4.05;50.58
61742;BME280;47650;49.848;9.620;2024-01-10T02:50:44;100709.44;;;-3.84;50.75
61742;BME280;47650;49.848;9.620;2024-01-10T02:53:10;100626.38;;;-4.24;50.93
61742;BME280;47650;49.848;9.620;2024-01-10T02:55:35;100701.44;;;-3.70;51.14
61742;BME280;47650;49.848;9.620;2024-01-10T02:58:02;100666.34;;;-3.89;50.82
61742;BME280;47650;49.848;9.620;2024-01-10T03:00:29;100706.44;;;-3.61;50.96
61742;BME280;47650;49.848;9.620;2024-01-10T03:02:55;100683.34;;;-3.73;50.81
61742;BME280;47650;49.848;9.620;2024-01-10T03:05:21;100702.19;;;-3.63;50.71
61742;BME280;47650;49.848;9.620;2024-01-10T03:07:46;100714.22;;;-3.62;50.77
61742;BME280;47650;49.848;9.620;2024-01-10T03:10:13;100709.94;;;-3.63;50.39
61742;BME280;47650;49.848;9.620;2024-01-10T03:12:38;100704.03;;;-3.71;51.00
61742;BME280;47650;49.848;9.620;2024-01-10T03:15:05;100711.66;;;-3.64;50.79
61742;BME280;47650;49.848;9.620;2024-01-10T03:17:31;100681.81;;;-3.85;50.75
61742;BME280;47650;49.848;9.620;2024-01-10T03:20:01;100710.91;;;-3.70;50.89
61742;BME280;47650;49.848;9.620;2024-01-10T03:22:30;100703.03;;;-3.63;50.67
61742;BME280;47650;49.848;9.620;2024-01-10T03:24:56;100716.03;;;-3.66;51.06
61742;BME280;47650;49.848;9.620;2024-01-10T03:27:21;100652.44;;;-3.82;51.09
61742;BME280;47650;49.848;9.620;2024-01-10T03:29:46;100632.63;;;-3.88;50.99
61742;BME280;47650;49.848;9.620;2024-01-10T03:32:13;100613.91;;;-4.02;51.21
61742;BME280;47650;49.848;9.620;2024-01-10T03:34:38;100579.00;;;-4.29;50.93
61742;BME280;47650;49.848;9.620;2024-01-10T03:37:04;100699.59;;;-3.63;52.34
61742;BME280;47650;49.848;9.620;2024-01-10T03:39:29;100697.06;;;-3.68;52.85
61742;BME280;47650;49.848;9.620;2024-01-10T03:41:56;100433.13;;;-5.20;53.11
61742;BME280;47650;49.848;9.620;2024-01-10T03:44:22;100641.56;;;-4.03;53.52
61742;BME280;47650;49.848;9.620;2024-01-10T03:49:15;100696.38;;;-3.79;52.55
61742;BME280;47650;49.848;9.620;2024-01-10T03:51:41;100698.19;;;-3.83;52.64
61742;BME280;47650;49.848;9.620;2024-01-10T03:54:08;100670.16;;;-4.09;53.58
61742;BME280;47650;49.848;9.620;2024-01-10T03:56:33;100687.16;;;-3.92;53.01
61742;BME280;47650;49.848;9.620;2024-01-10T03:59:03;100686.34;;;-3.96;53.23
61742;BME280;47650;49.848;9.620;2024-01-10T04:01:28;100667.66;;;-4.13;53.50
61742;BME280;47650;49.848;9.620;2024-01-10T04:03:54;100676.31;;;-4.16;53.47
61742;BME280;47650;49.848;9.620;2024-01-10T04:06:19;100674.50;;;-4.09;53.76
61742;BME280;47650;49.848;9.620;2024-01-10T04:08:46;100649.88;;;-4.33;53.98
61742;BME280;47650;49.848;9.620;2024-01-10T04:11:16;100679.84;;;-4.19;53.55
61742;BME280;47650;49.848;9.620;2024-01-10T04:13:41;100601.31;;;-4.72;53.98
61742;BME280;47650;49.848;9.620;2024-01-10T04:16:07;100677.38;;;-4.28;53.69
61742;BME280;47650;49.848;9.620;2024-01-10T04:18:33;100674.88;;;-4.32;54.22
61742;BME280;47650;49.848;9.620;2024-01-10T04:20:58;100647.00;;;-4.73;54.03
61742;BME280;47650;49.848;9.620;2024-01-10T04:23:24;100680.16;;;-4.40;53.95
61742;BME280;47650;49.848;9.620;2024-01-10T04:25:49;100667.41;;;-4.51;53.65
61742;BME280;47650;49.848;9.620;2024-01-10T04:28:15;100683.69;;;-4.44;53.81
61742;BME280;47650;49.848;9.620;2024-01-10T04:30:41;100646.09;;;-4.68;53.69
61742;BME280;47650;49.848;9.620;2024-01-10T04:33:06;100682.00;;;-4.48;53.56
61742;BME280;47650;49.848;9.620;2024-01-10T04:35:33;100657.22;;;-4.60;53.57
61742;BME280;47650;49.848;9.620;2024-01-10T04:37:58;100673.44;;;-4.52;54.31
61742;BME280;47650;49.848;9.620;2024-01-10T04:40:24;100588.06;;;-5.08;55.06
61742;BME280;47650;49.848;9.620;2024-01-10T04:42:49;100674.28;;;-4.50;55.01
61742;BME280;47650;49.848;9.620;2024-01-10T04:45:21;100669.16;;;-4.53;55.41
61742;BME280;47650;49.848;9.620;2024-01-10T04:47:47;100658.91;;;-4.61;55.73
61742;BME280;47650;49.848;9.620;2024-01-10T04:50:13;100676.03;;;-4.52;55.54
61742;BME280;47650;49.848;9.620;2024-01-10T04:52:39;100646.97;;;-4.69;55.56
61742;BME280;47650;49.848;9.620;2024-01-10T04:55:07;100650.41;;;-4.69;55.90
61742;BME280;47650;49.848;9.620;2024-01-10T04:57:34;100676.97;;;-4.56;56.01
61742;BME280;47650;49.848;9.620;2024-01-10T05:00:00;100591.50;;;-5.07;55.88
61742;BME280;47650;49.848;9.620;2024-01-10T05:02:26;100680.44;;;-4.59;55.64
61742;BME280;47650;49.848;9.620;2024-01-10T05:04:52;100665.09;;;-4.69;55.72
61742;BME280;47650;49.848;9.620;2024-01-10T05:07:18;100672.81;;;-4.66;55.81
61742;BME280;47650;49.848;9.620;2024-01-10T05:09:44;100642.06;;;-4.88;55.75
61742;BME280;47650;49.848;9.620;2024-01-10T05:12:10;100689.16;;;-4.63;55.56
61742;BME280;47650;49.848;9.620;2024-01-10T05:14:35;100672.03;;;-4.72;55.73
61742;BME280;47650;49.848;9.620;2024-01-10T05:17:01;100680.56;;;-4.66;56.20
61742;BME280;47650;49.848;9.620;2024-01-10T05:19:28;100683.13;;;-4.63;56.26
61742;BME280;47650;49.848;9.620;2024-01-10T05:21:54;100686.56;;;-4.64;55.64
61742;BME280;47650;49.848;9.620;2024-01-10T05:24:20;100679.81;;;-4.73;55.87
61742;BME280;47650;49.848;9.620;2024-01-10T05:26:46;100688.34;;;-4.66;56.22
61742;BME280;47650;49.848;9.620;2024-01-10T05:29:11;100692.72;;;-4.70;56.78
61742;BME280;47650;49.848;9.620;2024-01-10T05:31:39;100650.72;;;-4.89;56.82
61742;BME280;47650;49.848;9.620;2024-01-10T05:34:06;100683.34;;;-4.79;55.99
61742;BME280;47650;49.848;9.620;2024-01-10T05:36:33;100668.97;;;-4.98;56.48
61742;BME280;47650;49.848;9.620;2024-01-10T05:39:00;100683.34;;;-4.79;56.28
61742;BME280;47650;49.848;9.620;2024-01-10T05:41:26;100695.34;;;-4.75;56.46
61742;BME280;47650;49.848;9.620;2024-01-10T05:44:02;100661.13;;;-4.95;56.55
61742;BME280;47650;49.848;9.620;2024-01-10T05:46:40;100674.97;;;-4.96;57.19
61742;BME280;47650;49.848;9.620;2024-01-10T05:49:07;100658.72;;;-5.06;57.19
61742;BME280;47650;49.848;9.620;2024-01-10T05:51:34;100698.91;;;-4.83;57.30
61742;BME280;47650;49.848;9.620;2024-01-10T05:54:00;100683.56;;;-4.94;57.02
61742;BME280;47650;49.848;9.620;2024-01-10T05:56:35;100703.25;;;-4.85;56.75
61742;BME280;47650;49.848;9.620;2024-01-10T05:59:00;100665.63;;;-5.06;56.55
61742;BME280;47650;49.848;9.620;2024-01-10T06:01:26;100694.69;;;-4.87;56.71
61742;BME280;47650;49.848;9.620;2024-01-10T06:03:52;100692.06;;;-4.84;56.74
61742;BME280;47650;49.848;9.620;2024-01-10T06:06:17;100652.66;;;-5.03;57.04
61742;BME280;47650;49.848;9.620;2024-01-10T06:08:42;100684.31;;;-4.86;56.70
61742;BME280;47650;49.848;9.620;2024-01-10T06:11:11;100709.22;;;-4.79;56.98
61742;BME280;47650;49.848;9.620;2024-01-10T06:13:37;100687.72;;;-4.82;57.03
61742;BME280;47650;49.848;9.620;2024-01-10T06:16:03;100641.53;;;-5.08;57.78
61742;BME280;47650;49.848;9.620;2024-01-10T06:18:29;100668.97;;;-4.98;57.90
61742;BME280;47650;49.848;9.620;2024-01-10T06:20:57;100697.09;;;-4.77;57.77
61742;BME280;47650;49.848;9.620;2024-01-10T06:23:22;100686.78;;;-4.80;58.01
61742;BME280;47650;49.848;9.620;2024-01-10T06:25:47;100691.94;;;-4.78;57.08
61742;BME280;47650;49.848;9.620;2024-01-10T06:28:13;100688.56;;;-4.82;56.52
61742;BME280;47650;49.848;9.620;2024-01-10T06:30:38;100694.53;;;-4.77;57.07
61742;BME280;47650;49.848;9.620;2024-01-10T06:33:04;100686.03;;;-4.88;56.58
61742;BME280;47650;49.848;9.620;2024-01-10T06:35:32;100707.50;;;-4.80;57.09
61742;BME280;47650;49.848;9.620;2024-01-10T06:37:58;100694.72;;;-4.91;56.88
61742;BME280;47650;49.848;9.620;2024-01-10T06:40:25;100657.13;;;-5.18;57.86
61742;BME280;47650;49.848;9.620;2024-01-10T06:42:50;100684.41;;;-4.94;58.09
61742;BME280;47650;49.848;9.620;2024-01-10T06:45:16;100664.66;;;-4.99;58.07
61742;BME280;47650;49.848;9.620;2024-01-10T06:47:41;100674.09;;;-4.97;57.75
61742;BME280;47650;49.848;9.620;2024-01-10T06:50:08;100674.16;;;-5.00;57.37
61742;BME280;47650;49.848;9.620;2024-01-10T06:52:34;100703.25;;;-4.84;57.90
61742;BME280;47650;49.848;9.620;2024-01-10T06:54:59;100704.13;;;-4.85;57.36
61742;BME280;47650;49.848;9.620;2024-01-10T06:57:26;100703.25;;;-4.85;57.45
61742;BME280;47650;49.848;9.620;2024-01-10T06:59:53;100688.72;;;-4.94;57.49
61742;BME280;47650;49.848;9.620;2024-01-10T07:02:19;100698.09;;;-4.87;56.97
61742;BME280;47650;49.848;9.620;2024-01-10T07:04:44;100696.47;;;-4.93;56.45
61742;BME280;47650;49.848;9.620;2024-01-10T07:07:14;100708.44;;;-4.85;56.91
61742;BME280;47650;49.848;9.620;2024-01-10T07:09:39;100708.41;;;-4.84;56.95
61742;BME280;47650;49.848;9.620;2024-01-10T07:12:07;100714.44;;;-4.82;57.24
61742;BME280;47650;49.848;9.620;2024-01-10T07:14:35;100710.91;;;-4.78;56.82
61742;BME280;47650;49.848;9.620;2024-01-10T07:17:03;100704.91;;;-4.81;56.50
61742;BME280;47650;49.848;9.620;2024-01-10T07:19:28;100657.84;;;-5.03;56.76
61742;BME280;47650;49.848;9.620;2024-01-10T07:21:54;100727.97;;;-4.64;56.49
61742;BME280;47650;49.848;9.620;2024-01-10T07:24:20;100715.88;;;-4.62;56.83
61742;BME280;47650;49.848;9.620;2024-01-10T07:26:46;100725.31;;;-4.57;56.45
61742;BME280;47650;49.848;9.620;2024-01-10T07:29:11;100687.59;;;-4.75;56.45
61742;BME280;47650;49.848;9.620;2024-01-10T07:31:37;100720.75;;;-4.41;56.67
61742;BME280;47650;49.848;9.620;2024-01-10T07:34:02;100728.38;;;-4.33;56.51
61742;BME280;47650;49.848;9.620;2024-01-10T07:36:32;100699.16;;;-4.41;56.54
61742;BME280;47650;49.848;9.620;2024-01-10T07:38:59;100732.34;;;-4.10;56.61
61742;BME280;47650;49.848;9.620;2024-01-10T07:41:25;100704.91;;;-4.22;56.27
61742;BME280;47650;49.848;9.620;2024-01-10T07:43:50;100736.28;;;-3.88;55.78
61742;BME280;47650;49.848;9.620;2024-01-10T07:46:17;100542.19;;;-4.97;55.99
61742;BME280;47650;49.848;9.620;2024-01-10T07:48:43;100729.13;;;-3.72;56.17
61742;BME280;47650;49.848;9.620;2024-01-10T07:51:08;100743.44;;;-3.52;56.00
61742;BME280;47650;49.848;9.620;2024-01-10T07:53:36;100714.94;;;-3.52;55.92
61742;BME280;47650;49.848;9.620;2024-01-10T07:56:01;100737.75;;;-3.26;55.76
61742;BME280;47650;49.848;9.620;2024-01-10T07:58:26;100638.47;;;-3.75;55.59
61742;BME280;47650;49.848;9.620;2024-01-10T08:00:54;100743.25;;;-2.99;55.69
61742;BME280;47650;49.848;9.620;2024-01-10T08:03:21;100723.50;;;-3.05;55.51
61742;BME280;47650;49.848;9.620;2024-01-10T08:05:46;100754.13;;;-2.80;55.59
61742;BME280;47650;49.848;9.620;2024-01-10T08:08:12;100746.03;;;-2.67;55.06
61742;BME280;47650;49.848;9.620;2024-01-10T08:10:41;100744.09;;;-2.57;55.03
61742;BME280;47650;49.848;9.620;2024-01-10T08:13:06;100739.44;;;-2.42;54.96
61742;BME280;47650;49.848;9.620;2024-01-10T08:15:33;100748.72;;;-2.32;54.77
61742;BME280;47650;49.848;9.620;2024-01-10T08:18:01;100673.41;;;-2.68;54.32
61742;BME280;47650;49.848;9.620;2024-01-10T08:20:29;100714.78;;;-2.24;54.23
61742;BME280;47650;49.848;9.620;2024-01-10T08:22:56;100740.13;;;-1.98;53.63
61742;BME280;47650;49.848;9.620;2024-01-10T08:25:22;100692.72;;;-2.08;52.53
61742;BME280;47650;49.848;9.620;2024-01-10T08:27:48;100735.00;;;-1.67;53.02
61742;BME280;47650;49.848;9.620;2024-01-10T08:30:14;100724.22;;;-1.52;52.95
61742;BME280;47650;49.848;9.620;2024-01-10T08:32:40;100735.13;;;-1.39;51.67
61742;BME280;47650;49.848;9.620;2024-01-10T08:35:09;100734.53;;;-1.17;50.67
61742;BME280;47650;49.848;9.620;2024-01-10T08:37:36;100701.50;;;-1.15;50.64
61742;BME280;47650;49.848;9.620;2024-01-10T08:40:03;100731.13;;;-0.60;48.85
61742;BME280;47650;49.848;9.620;2024-01-10T08:42:33;100721.91;;;0.37;47.28
61742;BME280;47650;49.848;9.620;2024-01-10T08:44:59;100718.69;;;1.26;43.29
61742;BME280;47650;49.848;9.620;2024-01-10T08:47:24;100697.84;;;2.12;41.15
61742;BME280;47650;49.848;9.620;2024-01-10T08:49:50;100696.03;;;2.74;38.90
61742;BME280;47650;49.848;9.620;2024-01-10T08:52:18;100714.09;;;2.99;38.50
61742;BME280;47650;49.848;9.620;2024-01-10T08:54:45;100704.56;;;2.58;38.10
61742;BME280;47650;49.848;9.620;2024-01-10T08:57:10;100657.78;;;2.51;38.40
61742;BME280;47650;49.848;9.620;2024-01-10T08:59:36;100715.41;;;2.70;38.16
61742;BME280;47650;49.848;9.620;2024-01-10T09:02:03;100705.88;;;2.69;37.75
61742;BME280;47650;49.848;9.620;2024-01-10T09:04:29;100727.00;;;3.04;38.25
61742;BME280;47650;49.848;9.620;2024-01-10T09:06:54;100727.16;;;3.19;36.92
61742;BME280;47650;49.848;9.620;2024-01-10T09:09:21;100699.16;;;3.01;36.98
61742;BME280;47650;49.848;9.620;2024-01-10T09:11:47;100709.72;;;2.80;38.30
61742;BME280;47650;49.848;9.620;2024-01-10T09:14:15;100704.59;;;2.77;37.57
61742;BME280;47650;49.848;9.620;2024-01-10T09:16:41;100711.97;;;3.45;37.19
61742;BME280;47650;49.848;9.620;2024-01-10T09:19:06;100723.69;;;2.19;37.19
61742;BME280;47650;49.848;9.620;2024-01-10T09:21:32;100731.16;;;4.36;36.06
61742;BME280;47650;49.848;9.620;2024-01-10T09:23:57;100722.97;;;4.76;34.14
61742;BME280;47650;49.848;9.620;2024-01-10T09:26:23;100716.88;;;5.40;33.45
61742;BME280;47650;49.848;9.620;2024-01-10T09:28:50;100713.19;;;6.51;32.66
61742;BME280;47650;49.848;9.620;2024-01-10T09:31:15;100711.56;;;7.89;30.76
61742;BME280;47650;49.848;9.620;2024-01-10T09:33:41;100721.84;;;6.53;31.31
61742;BME280;47650;49.848;9.620;2024-01-10T09:36:09;100677.34;;;5.88;31.69
61742;BME280;47650;49.848;9.620;2024-01-10T09:38:38;100700.84;;;5.61;32.71
61742;BME280;47650;49.848;9.620;2024-01-10T09:41:04;100715.16;;;6.17;32.46
61742;BME280;47650;49.848;9.620;2024-01-10T09:43:31;100736.66;;;6.40;31.72
61742;BME280;47650;49.848;9.620;2024-01-10T09:46:00;100727.47;;;6.47;31.29
61742;BME280;47650;49.848;9.620;2024-01-10T09:48:26;100715.06;;;7.07;29.86
61742;BME280;47650;49.848;9.620;2024-01-10T09:50:52;100721.16;;;6.05;31.78
61742;BME280;47650;49.848;9.620;2024-01-10T09:53:25;100728.03;;;4.96;33.28
61742;BME280;47650;49.848;9.620;2024-01-10T09:55:53;100744.63;;;3.93;34.33
61742;BME280;47650;49.848;9.620;2024-01-10T09:58:24;100724.53;;;3.75;35.45
61742;BME280;47650;49.848;9.620;2024-01-10T10:00:50;100743.66;;;3.77;35.14
61742;BME280;47650;49.848;9.620;2024-01-10T10:03:17;100745.75;;;2.34;36.90
61742;BME280;47650;49.848;9.620;2024-01-10T10:05:43;100744.34;;;3.06;36.91
61742;BME280;47650;49.848;9.620;2024-01-10T10:08:11;100735.22;;;2.96;36.92
61742;BME280;47650;49.848;9.620;2024-01-10T10:10:38;100678.28;;;2.20;37.97
61742;BME280;47650;49.848;9.620;2024-01-10T10:13:09;100737.44;;;2.45;37.82
61742;BME280;47650;49.848;9.620;2024-01-10T10:15:36;100701.38;;;2.31;38.29
61742;BME280;47650;49.848;9.620;2024-01-10T10:18:02;100707.91;;;2.21;38.52
61742;BME280;47650;49.848;9.620;2024-01-10T10:20:30;100754.38;;;2.57;38.08
61742;BME280;47650;49.848;9.620;2024-01-10T10:23:06;100737.13;;;2.53;38.38
61742;BME280;47650;49.848;9.620;2024-01-10T10:25:36;100739.97;;;2.67;37.82
61742;BME280;47650;49.848;9.620;2024-01-10T10:28:04;100592.53;;;1.45;38.22
61742;BME280;47650;49.848;9.620;2024-01-10T10:30:31;100739.66;;;2.94;37.52
61742;BME280;47650;49.848;9.620;2024-01-10T10:32:57;100703.41;;;3.23;37.27
61742;BME280;47650;49.848;9.620;2024-01-10T10:35:23;100731.47;;;3.20;37.42
61742;BME280;47650;49.848;9.620;2024-01-10T10:37:49;100739.47;;;4.09;36.06
61742;BME280;47650;49.848;9.620;2024-01-10T10:40:16;100729.56;;;4.67;34.66
61742;BME280;47650;49.848;9.620;2024-01-10T10:42:46;100719.94;;;5.95;32.71
61742;BME280;47650;49.848;9.620;2024-01-10T10:45:15;100708.09;;;7.89;30.82
61742;BME280;47650;49.848;9.620;2024-01-10T10:47:43;100701.91;;;9.55;28.11
61742;BME280;47650;49.848;9.620;2024-01-10T10:50:13;100681.91;;;10.58;26.26
61742;BME280;47650;49.848;9.620;2024-01-10T10:52:45;100676.84;;;12.40;24.97
61742;BME280;47650;49.848;9.620;2024-01-10T10:55:15;100670.19;;;13.27;23.25
61742;BME280;47650;49.848;9.620;2024-01-10T10:57:45;100666.78;;;13.95;22.20
61742;BME280;47650;49.848;9.620;2024-01-10T11:00:14;100664.13;;;13.76;22.40
61742;BME280;47650;49.848;9.620;2024-01-10T11:02:41;100658.34;;;13.80;21.99
61742;BME280;47650;49.848;9.620;2024-01-10T11:05:09;100616.44;;;13.03;22.66
61742;BME280;47650;49.848;9.620;2024-01-10T11:07:38;100664.69;;;12.78;22.33
61742;BME280;47650;49.848;9.620;2024-01-10T11:10:08;100650.63;;;14.06;21.21
61742;BME280;47650;49.848;9.620;2024-01-10T11:13:05;100651.75;;;14.14;21.23
61742;BME280;47650;49.848;9.620;2024-01-10T11:21:22;100645.31;;;13.87;21.94
61742;BME280;47650;49.848;9.620;2024-01-10T11:23:52;100646.44;;;13.75;21.19
61742;BME280;47650;49.848;9.620;2024-01-10T11:26:22;100622.56;;;14.02;20.84
61742;BME280;47650;49.848;9.620;2024-01-10T11:28:47;100637.06;;;14.84;20.82
61742;BME280;47650;49.848;9.620;2024-01-10T11:31:14;100645.97;;;12.49;22.72
61742;BME280;47650;49.848;9.620;2024-01-10T11:33:41;100620.59;;;14.14;21.38
61742;BME280;47650;49.848;9.620;2024-01-10T11:36:23;100647.25;;;13.46;22.08
61742;BME280;47650;49.848;9.620;2024-01-10T11:46:35;100637.25;;;12.16;23.11
61742;BME280;47650;49.848;9.620;2024-01-10T11:49:02;100631.06;;;10.17;25.49
61742;BME280;47650;49.848;9.620;2024-01-10T11:51:30;100648.34;;;9.52;26.63
61742;BME280;47650;49.848;9.620;2024-01-10T11:53:56;100617.81;;;8.61;28.22
61742;BME280;47650;49.848;9.620;2024-01-10T11:56:23;100634.16;;;8.40;28.18
61742;BME280;47650;49.848;9.620;2024-01-10T11:59:13;100667.22;;;7.40;29.80
61742;BME280;47650;49.848;9.620;2024-01-10T12:01:42;100686.81;;;7.09;30.51
61742;BME280;47650;49.848;9.620;2024-01-10T12:04:08;100649.75;;;8.45;29.42
61742;BME280;47650;49.848;9.620;2024-01-10T12:06:37;100653.34;;;9.68;27.61
61742;BME280;47650;49.848;9.620;2024-01-10T12:09:03;100645.06;;;11.32;25.89
61742;BME280;47650;49.848;9.620;2024-01-10T12:11:35;100597.00;;;11.89;24.93
61742;BME280;47650;49.848;9.620;2024-01-10T12:14:03;100645.00;;;12.29;24.11
61742;BME280;47650;49.848;9.620;2024-01-10T12:16:34;100635.25;;;13.11;23.86
61742;BME280;47650;49.848;9.620;2024-01-10T12:19:00;100626.38;;;13.70;22.84
61742;BME280;47650;49.848;9.620;2024-01-10T12:21:26;100607.53;;;14.01;22.04
61742;BME280;47650;49.848;9.620;2024-01-10T12:23:51;100621.69;;;14.11;21.97
61742;BME280;47650;49.848;9.620;2024-01-10T12:26:19;100618.09;;;13.73;22.57
61742;BME280;47650;49.848;9.620;2024-01-10T12:28:56;100620.13;;;14.19;22.09
61742;BME280;47650;49.848;9.620;2024-01-10T12:31:21;100614.63;;;14.30;21.93
61742;BME280;47650;49.848;9.620;2024-01-10T12:33:49;100599.75;;;15.20;20.99
61742;BME280;47650;49.848;9.620;2024-01-10T12:36:17;100606.94;;;15.38;21.23
61742;BME280;47650;49.848;9.620;2024-01-10T12:38:42;100611.06;;;15.32;21.19
61742;BME280;47650;49.848;9.620;2024-01-10T12:41:08;100625.50;;;14.66;21.08
61742;BME280;47650;49.848;9.620;2024-01-10T12:43:35;100610.91;;;15.16;21.27
61742;BME280;47650;49.848;9.620;2024-01-10T12:46:07;100619.22;;;16.03;20.34
61742;BME280;47650;49.848;9.620;2024-01-10T12:48:33;100621.75;;;15.68;20.67
61742;BME280;47650;49.848;9.620;2024-01-10T12:51:01;100612.94;;;15.04;21.12
61742;BME280;47650;49.848;9.620;2024-01-10T12:53:29;100616.25;;;15.16;20.77
61742;BME280;47650;49.848;9.620;2024-01-10T12:55:56;100616.66;;;15.39;20.29
61742;BME280;47650;49.848;9.620;2024-01-10T12:58:22;100606.00;;;15.29;20.12
61742;BME280;47650;49.848;9.620;2024-01-10T13:00:47;100585.00;;;14.98;21.15
61742;BME280;47650;49.848;9.620;2024-01-10T13:03:19;100604.22;;;14.46;21.91
61742;BME280;47650;49.848;9.620;2024-01-10T13:05:45;100576.19;;;14.23;21.98
61742;BME280;47650;49.848;9.620;2024-01-10T13:08:11;100616.56;;;14.38;21.52
61742;BME280;47650;49.848;9.620;2024-01-10T13:10:38;100619.16;;;13.12;22.85
61742;BME280;47650;49.848;9.620;2024-01-10T13:13:03;100608.53;;;13.32;22.66
61742;BME280;47650;49.848;9.620;2024-01-10T13:15:28;100618.88;;;14.70;21.50
61742;BME280;47650;49.848;9.620;2024-01-10T13:17:55;100619.19;;;14.00;22.62
61742;BME280;47650;49.848;9.620;2024-01-10T13:20:20;100619.47;;;13.97;22.23
61742;BME280;47650;49.848;9.620;2024-01-10T13:22:46;100618.53;;;14.45;21.46
61742;BME280;47650;49.848;9.620;2024-01-10T13:25:11;100592.00;;;13.77;22.64
61742;BME280;47650;49.848;9.620;2024-01-10T13:27:38;100618.94;;;13.54;22.48
61742;BME280;47650;49.848;9.620;2024-01-10T13:30:04;100611.81;;;14.41;21.54